Ana Sayfa
METAR-TAF:

METAR-TAF

Havaalanları :

Dakar, Senegal

Enlem: 14-44N, Boylam: 017-30W, yükseklik: 27 m

Güncel hava durumu gözlemi

Rapor saat 11:00 UTC de 1 saat ve 13 dakika önce yapıldı.
Rüzgar kuzeybatıdan 10 kt
Sıcaklık 24°C
Nem 78%
Basınç 1013 hPa
Görüş mesafesi 10 km veya daha fazla
1500 m altında bulut yok ve kümülonimbus yok

METAR: GOOY 241100Z 32010KT CAVOK 24/20 Q1013

Saat: 12:13 (12:13 UTC)

Tahmin

Rapor saat 11:30 UTC de 43 dakika önce yapıldı.
Ayın 24'si saat 12 UTC'den ayın 25'si saat 18 UTC'ye kadar geçerli Tahmin
Rüzgar kuzey/kuzeybatıdan 10 kt
Görüş mesafesi 10 km veya daha fazla
1500 m altında bulut yok ve kümülonimbus yok
Dönüşüyor
ayın 24'si saat 22 UTC'den ayın 25'si saat 02 UTC'ye kadar
800 ft yükseklikte parçalı bulutlu
Dönüşüyor
ayın 25'si saat 06 UTC'den ayın 25'si saat 08 UTC'ye kadar

TAF: GOOY 241130Z 2412/2518 34010KT CAVOK BECMG 2422/2502 SCT008 BECMG 2506/2508 NSC

4.000'den fazla havaalanı için hava durumu gözlemleri ve tahminleri (METAR ve TAF raporları).

Kullanılabilir istasyonlar harita üzerinde sarı ve kırmızı noktalarla gösterilir.

İstasyonun adını görmek için fareyi noktanın üzerinde gezdirin.

Sonrasında hava gözlem ve tahminlerini görmek için tıklayın.

Haritayı değiştirmek için: yaklaştırmak için siyah artı işaretli yeşil düğmeye ve uzaklaştırmak için de eksi işaretli düğmeye hızla tıklayın; bitişik haritalar için yeşil okları kullanın.


METAR-TAF: